Time;durP1;ratioP1;P1;durP2;ratioP2;P2;SDS_P1;SDS_P2;PMS_P1;PMS_P2;Temp;Humidity;BMP_temperature;BMP_pressure;BME280_temperature;BME280_humidity;BME280_pressure;Samples;Min_cycle;Max_cycle;Signal;HPM_P1;HPM_P2
2022/08/16 06:32:13;;;;;;;13.98;5.88;;;;;;;;;;5848971;23;20055;-63
2022/08/16 06:34:42;;;;;;;10.45;5.55;;;;;;;;;;4891492;29;20396;-62
2022/08/16 06:37:09;;;;;;;8.05;5.80;;;;;;;;;;4908669;29;20033;-63
2022/08/16 06:39:35;;;;;;;8.25;5.53;;;;;;;;;;4896315;29;20032;-65
2022/08/16 06:42:01;;;;;;;7.15;5.82;;;;;;;;;;4895610;29;20044;-65
2022/08/16 06:44:28;;;;;;;6.18;5.57;;;;;;;;;;4895631;29;20499;-64
2022/08/16 06:46:54;;;;;;;8.98;5.47;;;;;;;;;;4896648;29;20029;-63
2022/08/16 06:49:20;;;;;;;9.00;5.45;;;;;;;;;;4895682;29;20383;-63
2022/08/16 06:51:47;;;;;;;10.40;5.10;;;;;;;;;;4910705;29;20032;-63
2022/08/16 06:54:13;;;;;;;8.85;5.38;;;;;;;;;;4895909;29;20036;-63
2022/08/16 06:56:39;;;;;;;8.63;5.30;;;;;;;;;;4895982;29;20035;-63
2022/08/16 06:59:06;;;;;;;8.60;4.78;;;;;;;;;;4898906;29;20394;-63
2022/08/16 07:01:32;;;;;;;10.23;4.70;;;;;;;;;;4899464;29;20080;-63
2022/08/16 07:03:58;;;;;;;9.07;5.45;;;;;;;;;;4899277;29;20037;-63
2022/08/16 07:06:25;;;;;;;7.93;5.07;;;;;;;;;;4899959;29;20024;-63
2022/08/16 07:08:52;;;;;;;12.07;5.57;;;;;;;;;;4898623;29;20484;-64
2022/08/16 07:11:19;;;;;;;7.93;5.45;;;;;;;;;;4899907;29;20051;-63
2022/08/16 07:13:47;;;;;;;8.75;4.85;;;;;;;;;;4899854;29;20035;-63
2022/08/16 07:16:15;;;;;;;6.80;5.05;;;;;;;;;;4899262;29;20058;-63
2022/08/16 07:18:44;;;;;;;6.20;4.90;;;;;;;;;;4899637;29;20017;-63
2022/08/16 07:21:12;;;;;;;8.52;5.60;;;;;;;;;;4899560;29;20032;-63
2022/08/16 07:23:39;;;;;;;7.45;5.35;;;;;;;;;;4899789;29;20035;-63
2022/08/16 07:26:07;;;;;;;9.07;5.70;;;;;;;;;;4899983;29;20079;-63
2022/08/16 07:28:34;;;;;;;11.13;5.57;;;;;;;;;;4899584;29;20403;-63
2022/08/16 07:31:02;;;;;;;7.82;5.05;;;;;;;;;;4899535;29;20023;-63
2022/08/16 07:33:29;;;;;;;9.65;4.70;;;;;;;;;;4898994;29;20048;-63
2022/08/16 07:35:57;;;;;;;7.20;5.15;;;;;;;;;;4909851;29;20030;-64
2022/08/16 07:38:26;;;;;;;7.53;5.18;;;;;;;;;;4918308;29;20036;-63
2022/08/16 07:40:53;;;;;;;7.82;5.20;;;;;;;;;;4918418;29;20031;-63
2022/08/16 07:43:20;;;;;;;8.07;4.47;;;;;;;;;;4917985;29;20032;-63
2022/08/16 07:45:47;;;;;;;9.82;5.07;;;;;;;;;;4918139;29;20074;-64
2022/08/16 07:48:13;;;;;;;12.43;4.55;;;;;;;;;;4918133;29;20026;-63
2022/08/16 07:50:40;;;;;;;6.82;4.68;;;;;;;;;;4917990;29;20043;-62
2022/08/16 07:53:06;;;;;;;8.57;5.25;;;;;;;;;;4907929;29;20035;-62
2022/08/16 07:55:33;;;;;;;10.55;5.20;;;;;;;;;;4898310;29;20116;-61
2022/08/16 07:58:22;;;;;;;7.63;4.55;;;;;;;;;;4859431;29;20041;-64
2022/08/16 08:00:48;;;;;;;7.07;4.53;;;;;;;;;;4859638;29;20049;-63
2022/08/16 08:03:14;;;;;;;9.00;4.85;;;;;;;;;;4859053;29;20037;-63
2022/08/16 08:05:41;;;;;;;8.85;4.65;;;;;;;;;;4859640;29;20041;-63
2022/08/16 08:08:07;;;;;;;6.75;5.00;;;;;;;;;;4859339;29;20030;-63
2022/08/16 08:10:33;;;;;;;6.85;4.35;;;;;;;;;;4858957;29;20073;-63
2022/08/16 08:13:00;;;;;;;6.07;4.40;;;;;;;;;;4859372;29;20029;-63
2022/08/16 08:15:27;;;;;;;6.57;4.30;;;;;;;;;;4859633;29;20053;-63
2022/08/16 08:17:53;;;;;;;8.48;5.07;;;;;;;;;;4859002;29;20037;-64
2022/08/16 08:20:25;;;;;;;9.35;4.70;;;;;;;;;;4859396;29;20029;-64
2022/08/16 08:22:52;;;;;;;8.40;4.90;;;;;;;;;;4859138;29;20540;-64
2022/08/16 08:25:19;;;;;;;6.82;4.70;;;;;;;;;;4858348;29;20045;-63
2022/08/16 08:27:46;;;;;;;8.05;4.60;;;;;;;;;;4859406;29;20029;-63
2022/08/16 08:30:13;;;;;;;7.68;4.70;;;;;;;;;;4859271;29;20041;-64
2022/08/16 08:32:40;;;;;;;9.18;4.47;;;;;;;;;;4858349;29;20395;-64
2022/08/16 08:35:07;;;;;;;8.80;4.63;;;;;;;;;;4873034;29;20051;-64
2022/08/16 08:37:34;;;;;;;8.73;4.60;;;;;;;;;;4909585;29;20032;-63
2022/08/16 08:40:01;;;;;;;6.50;4.63;;;;;;;;;;4900155;29;20029;-63
2022/08/16 08:42:27;;;;;;;9.30;4.22;;;;;;;;;;4894538;29;20029;-64
2022/08/16 08:44:54;;;;;;;6.90;4.22;;;;;;;;;;4895879;29;20062;-64
2022/08/16 08:47:20;;;;;;;5.57;3.92;;;;;;;;;;4897637;29;20025;-63
2022/08/16 08:49:47;;;;;;;7.25;4.00;;;;;;;;;;4897860;29;20035;-64
2022/08/16 08:52:13;;;;;;;9.25;4.13;;;;;;;;;;4898016;29;20032;-64
2022/08/16 08:54:40;;;;;;;5.95;4.03;;;;;;;;;;4898176;29;20072;-63
2022/08/16 08:57:08;;;;;;;6.32;4.15;;;;;;;;;;4897946;29;20045;-64
2022/08/16 08:59:34;;;;;;;7.88;4.45;;;;;;;;;;4897858;29;20035;-63
2022/08/16 09:02:01;;;;;;;6.15;3.83;;;;;;;;;;4897705;29;20311;-64
2022/08/16 09:04:28;;;;;;;5.50;4.03;;;;;;;;;;4897677;29;20411;-63
2022/08/16 09:06:55;;;;;;;8.27;4.13;;;;;;;;;;4897067;29;20043;-63
2022/08/16 09:09:22;;;;;;;8.48;3.65;;;;;;;;;;4897483;29;20029;-63
2022/08/16 09:11:48;;;;;;;7.90;3.88;;;;;;;;;;4897898;29;20013;-64
2022/08/16 09:14:15;;;;;;;10.07;4.05;;;;;;;;;;4897716;29;20025;-63
2022/08/16 09:16:41;;;;;;;7.85;3.88;;;;;;;;;;4897984;29;20041;-65
2022/08/16 09:19:07;;;;;;;7.68;3.80;;;;;;;;;;4898002;29;20028;-69
2022/08/16 09:21:35;;;;;;;6.28;3.30;;;;;;;;;;4896789;29;20033;-66
2022/08/16 09:24:01;;;;;;;5.35;3.42;;;;;;;;;;4896792;29;20036;-66
2022/08/16 09:26:28;;;;;;;5.70;3.20;;;;;;;;;;4896714;29;20025;-66
2022/08/16 09:28:54;;;;;;;4.35;3.30;;;;;;;;;;4896890;29;20040;-67
2022/08/16 09:31:23;;;;;;;6.25;3.17;;;;;;;;;;4897142;29;20517;-66
2022/08/16 09:33:51;;;;;;;8.73;3.72;;;;;;;;;;4896570;29;20049;-67
2022/08/16 09:36:18;;;;;;;5.65;2.95;;;;;;;;;;4899181;29;20048;-67
2022/08/16 09:38:45;;;;;;;13.80;3.40;;;;;;;;;;4915918;29;20487;-65
2022/08/16 09:41:12;;;;;;;5.15;3.50;;;;;;;;;;4916454;29;20083;-66
2022/08/16 09:43:38;;;;;;;8.13;3.40;;;;;;;;;;4915324;29;20043;-66
2022/08/16 09:46:06;;;;;;;4.15;2.92;;;;;;;;;;4915847;29;20095;-65
2022/08/16 09:48:40;;;;;;;4.63;3.33;;;;;;;;;;4916090;29;20031;-67
2022/08/16 09:51:08;;;;;;;6.65;3.42;;;;;;;;;;4916349;29;20502;-66
2022/08/16 09:53:34;;;;;;;6.97;3.47;;;;;;;;;;4916149;29;20031;-65
2022/08/16 09:56:01;;;;;;;6.13;2.95;;;;;;;;;;4930479;29;20083;-66
2022/08/16 09:58:27;;;;;;;5.38;3.05;;;;;;;;;;4915343;29;20471;-66
2022/08/16 10:00:54;;;;;;;5.00;3.10;;;;;;;;;;4916052;29;20036;-65
2022/08/16 10:03:20;;;;;;;4.57;3.10;;;;;;;;;;4914974;29;20028;-64
2022/08/16 10:05:47;;;;;;;6.20;3.20;;;;;;;;;;4915922;29;20063;-66
2022/08/16 10:08:15;;;;;;;7.40;2.97;;;;;;;;;;4910591;29;20447;-66
2022/08/16 10:13:10;;;;;;;3.75;3.40;;;;;;;;;;4897133;29;20067;-66
2022/08/16 10:13:29;;;;;;;9.02;3.20;;;;;;;;;;4894904;29;20033;-66
2022/08/16 10:15:58;;;;;;;4.65;2.83;;;;;;;;;;4896539;29;20032;-67
2022/08/16 10:18:28;;;;;;;7.85;3.65;;;;;;;;;;4896884;29;20021;-65
2022/08/16 10:20:55;;;;;;;9.00;3.45;;;;;;;;;;4896838;29;20016;-63
2022/08/16 10:23:22;;;;;;;9.35;3.15;;;;;;;;;;4896561;29;20495;-65
2022/08/16 10:25:48;;;;;;;5.85;3.40;;;;;;;;;;4895680;29;20025;-65
2022/08/16 10:28:15;;;;;;;8.13;3.15;;;;;;;;;;4895163;29;20024;-66
2022/08/16 10:30:42;;;;;;;5.63;3.00;;;;;;;;;;4896598;29;20037;-70
2022/08/16 10:33:09;;;;;;;5.03;3.22;;;;;;;;;;4899313;29;20637;-71
2022/08/16 10:35:35;;;;;;;5.95;3.15;;;;;;;;;;4899842;29;20546;-71
2022/08/16 10:38:01;;;;;;;8.80;3.53;;;;;;;;;;4916152;29;20418;-71
2022/08/16 10:40:28;;;;;;;7.63;2.97;;;;;;;;;;4919531;29;20026;-71
2022/08/16 10:42:54;;;;;;;5.35;2.65;;;;;;;;;;4919089;29;20454;-71
2022/08/16 10:45:20;;;;;;;4.32;3.22;;;;;;;;;;4919105;29;20039;-71
2022/08/16 10:47:48;;;;;;;5.55;3.20;;;;;;;;;;4903168;29;20029;-71
2022/08/16 10:50:14;;;;;;;5.97;3.00;;;;;;;;;;4900189;29;20480;-71
2022/08/16 10:52:41;;;;;;;7.88;3.20;;;;;;;;;;4900285;29;20025;-71
2022/08/16 10:55:10;;;;;;;6.82;3.53;;;;;;;;;;4900333;29;20103;-71
2022/08/16 10:57:36;;;;;;;5.65;3.33;;;;;;;;;;4899985;29;20021;-71
2022/08/16 11:00:07;;;;;;;7.05;3.30;;;;;;;;;;4899677;29;20043;-71
2022/08/16 11:02:33;;;;;;;;;;;;;;;;;;4900068;29;20029;-71
2022/08/16 11:04:59;;;;;;;3.97;2.88;;;;;;;;;;4900099;29;20304;-71
2022/08/16 11:07:26;;;;;;;7.78;3.50;;;;;;;;;;4900082;29;20088;-71
2022/08/16 11:09:52;;;;;;;6.30;2.95;;;;;;;;;;4898785;29;20029;-71
2022/08/16 11:12:18;;;;;;;5.25;3.13;;;;;;;;;;4899885;29;20028;-71
2022/08/16 11:14:44;;;;;;;10.65;3.70;;;;;;;;;;4900054;29;20083;-71
2022/08/16 11:17:12;;;;;;;6.53;3.30;;;;;;;;;;4899943;29;20497;-71
2022/08/16 11:19:42;;;;;;;9.10;3.70;;;;;;;;;;4900011;29;20040;-71
2022/08/16 11:22:08;;;;;;;7.95;3.40;;;;;;;;;;4899494;29;20021;-71
2022/08/16 11:24:39;;;;;;;8.75;3.20;;;;;;;;;;4898640;29;20047;-71
2022/08/16 11:27:07;;;;;;;7.82;3.63;;;;;;;;;;4882741;29;20032;-71
2022/08/16 11:29:34;;;;;;;9.18;3.40;;;;;;;;;;4899307;29;20020;-71
2022/08/16 11:32:03;;;;;;;6.15;3.35;;;;;;;;;;4899381;29;20019;-71
2022/08/16 11:34:30;;;;;;;7.35;3.47;;;;;;;;;;4899589;29;20501;-71
2022/08/16 11:36:56;;;;;;;7.18;3.28;;;;;;;;;;4906925;29;20028;-69
2022/08/16 11:39:23;;;;;;;7.80;3.65;;;;;;;;;;4916962;29;20034;-70
2022/08/16 11:41:49;;;;;;;4.53;3.17;;;;;;;;;;4918233;29;20520;-69
2022/08/16 11:44:15;;;;;;;5.75;3.60;;;;;;;;;;4917869;29;20067;-70
2022/08/16 11:46:42;;;;;;;5.80;3.70;;;;;;;;;;4932819;29;20036;-70
2022/08/16 11:49:08;;;;;;;10.18;3.88;;;;;;;;;;4918118;29;20032;-70
2022/08/16 11:51:35;;;;;;;6.50;3.50;;;;;;;;;;4918254;29;20394;-69
2022/08/16 11:54:01;;;;;;;9.30;3.17;;;;;;;;;;4917509;29;20026;-69
2022/08/16 11:56:27;;;;;;;6.13;3.55;;;;;;;;;;4918223;29;20036;-69
2022/08/16 11:58:54;;;;;;;5.93;3.45;;;;;;;;;;4917245;29;20348;-70
2022/08/16 12:01:20;;;;;;;6.25;3.22;;;;;;;;;;4912819;29;20293;-70
2022/08/16 12:03:46;;;;;;;6.50;3.63;;;;;;;;;;4897883;29;20031;-70
2022/08/16 12:06:14;;;;;;;10.18;3.70;;;;;;;;;;4898954;29;20043;-70
2022/08/16 12:08:42;;;;;;;12.48;3.92;;;;;;;;;;4899017;29;20525;-69
2022/08/16 12:11:09;;;;;;;4.70;3.03;;;;;;;;;;4899526;29;20035;-70
2022/08/16 12:13:35;;;;;;;7.07;3.67;;;;;;;;;;4898984;29;20372;-67
2022/08/16 12:16:01;;;;;;;6.28;3.60;;;;;;;;;;4899279;29;20025;-67
2022/08/16 12:18:29;;;;;;;4.78;3.50;;;;;;;;;;4899155;29;20031;-67
2022/08/16 12:20:55;;;;;;;11.05;3.70;;;;;;;;;;4899283;29;20035;-67
2022/08/16 12:23:22;;;;;;;5.15;3.30;;;;;;;;;;4898713;29;20039;-67
2022/08/16 12:25:48;;;;;;;11.13;3.88;;;;;;;;;;4899004;29;20103;-67
2022/08/16 12:28:15;;;;;;;4.15;3.10;;;;;;;;;;4898965;29;20387;-67
2022/08/16 12:30:43;;;;;;;7.50;3.40;;;;;;;;;;4898857;29;20501;-67
2022/08/16 12:33:11;;;;;;;7.55;3.72;;;;;;;;;;4898672;29;20045;-67
2022/08/16 12:35:38;;;;;;;6.13;3.65;;;;;;;;;;4896024;29;20043;-67
2022/08/16 12:38:06;;;;;;;9.68;3.50;;;;;;;;;;4914121;29;20034;-67
2022/08/16 12:40:34;;;;;;;5.80;4.03;;;;;;;;;;4917102;29;20039;-68
2022/08/16 12:43:02;;;;;;;8.88;3.80;;;;;;;;;;4917395;29;20035;-67
2022/08/16 12:45:33;;;;;;;6.43;3.60;;;;;;;;;;4917307;29;20047;-67
2022/08/16 12:50:46;;;;;;;7.15;3.58;;;;;;;;;;4917213;29;20031;-67
2022/08/16 12:53:13;;;;;;;4.93;4.07;;;;;;;;;;4917039;29;20020;-67
2022/08/16 12:55:40;;;;;;;8.13;3.17;;;;;;;;;;4916078;29;20097;-67
2022/08/16 12:58:06;;;;;;;10.02;3.90;;;;;;;;;;4917135;29;20036;-67
2022/08/16 13:00:34;;;;;;;8.02;3.35;;;;;;;;;;4910816;29;20031;-67
2022/08/16 13:03:01;;;;;;;6.68;3.60;;;;;;;;;;4897320;29;20037;-67
2022/08/16 13:05:27;;;;;;;8.75;3.30;;;;;;;;;;4897905;29;20048;-68
2022/08/16 13:07:56;;;;;;;6.68;3.80;;;;;;;;;;4897522;29;20436;-67
2022/08/16 13:10:23;;;;;;;6.65;3.90;;;;;;;;;;4897927;29;20484;-67
2022/08/16 13:12:52;;;;;;;12.98;3.78;;;;;;;;;;4897787;29;20032;-67
2022/08/16 13:15:23;;;;;;;12.30;4.25;;;;;;;;;;4897627;29;20028;-67
2022/08/16 13:17:51;;;;;;;6.93;3.80;;;;;;;;;;4897654;29;20037;-67
2022/08/16 13:20:20;;;;;;;5.55;3.70;;;;;;;;;;4897764;29;20080;-67
2022/08/16 13:23:06;;;;;;;5.78;3.40;;;;;;;;;;4897193;29;20024;-68
2022/08/16 13:25:34;;;;;;;5.90;3.60;;;;;;;;;;4896803;29;20041;-67
2022/08/16 13:28:00;;;;;;;8.82;3.45;;;;;;;;;;4897463;29;20410;-68
2022/08/16 13:30:28;;;;;;;9.05;3.65;;;;;;;;;;4896728;29;20403;-67
2022/08/16 13:32:55;;;;;;;5.55;3.85;;;;;;;;;;4897361;29;20040;-68
2022/08/16 13:35:22;;;;;;;6.28;3.60;;;;;;;;;;4896318;29;20495;-68
2022/08/16 13:37:48;;;;;;;12.40;3.60;;;;;;;;;;4909951;29;20024;-68
2022/08/16 13:40:15;;;;;;;7.72;3.72;;;;;;;;;;4916431;29;20487;-68
2022/08/16 13:42:43;;;;;;;12.77;3.97;;;;;;;;;;4916362;29;20028;-68
2022/08/16 13:45:10;;;;;;;7.53;3.88;;;;;;;;;;4916344;29;20036;-67
2022/08/16 13:47:38;;;;;;;9.63;3.97;;;;;;;;;;4915375;29;20082;-67
2022/08/16 13:50:05;;;;;;;8.27;4.15;;;;;;;;;;4895746;29;20031;-66
2022/08/16 13:52:33;;;;;;;9.57;3.90;;;;;;;;;;4896963;29;20036;-67
2022/08/16 13:55:00;;;;;;;11.80;3.95;;;;;;;;;;4897095;29;20039;-67
2022/08/16 13:57:26;;;;;;;6.57;3.90;;;;;;;;;;4897044;29;20025;-67
2022/08/16 13:59:52;;;;;;;7.75;3.65;;;;;;;;;;4896753;29;20107;-67
2022/08/16 14:02:19;;;;;;;5.65;3.35;;;;;;;;;;4895798;29;20032;-67
2022/08/16 14:04:46;;;;;;;7.82;4.00;;;;;;;;;;4896504;29;20764;-67
2022/08/16 14:07:13;;;;;;;9.07;3.78;;;;;;;;;;4896516;29;20475;-68
2022/08/16 14:09:39;;;;;;;7.55;3.95;;;;;;;;;;4896344;29;20068;-67
2022/08/16 14:12:12;;;;;;;7.32;4.07;;;;;;;;;;4896685;29;20411;-67
2022/08/16 14:14:39;;;;;;;8.10;3.47;;;;;;;;;;4896720;29;20043;-68
2022/08/16 14:17:05;;;;;;;9.30;3.72;;;;;;;;;;4896715;29;20054;-68
2022/08/16 14:19:31;;;;;;;10.70;3.78;;;;;;;;;;4896028;29;20039;-67
2022/08/16 14:21:59;;;;;;;13.88;4.53;;;;;;;;;;4896905;29;20028;-67
2022/08/16 14:24:25;;;;;;;9.90;3.97;;;;;;;;;;4896588;29;20399;-67
2022/08/16 14:26:51;;;;;;;5.68;3.00;;;;;;;;;;4897062;29;20024;-67
2022/08/16 14:29:18;;;;;;;6.97;3.70;;;;;;;;;;4896726;29;20055;-67
2022/08/16 14:31:44;;;;;;;12.75;3.92;;;;;;;;;;4896731;29;20079;-67
2022/08/16 14:34:10;;;;;;;8.88;3.95;;;;;;;;;;4896083;29;20041;-67
2022/08/16 14:36:37;;;;;;;10.13;4.10;;;;;;;;;;4898813;29;20028;-67
2022/08/16 14:39:04;;;;;;;8.45;4.05;;;;;;;;;;4896570;29;20033;-66
2022/08/16 14:41:30;;;;;;;13.90;4.43;;;;;;;;;;4896724;29;20036;-67
2022/08/16 14:43:57;;;;;;;8.52;4.07;;;;;;;;;;4895258;29;20025;-67
2022/08/16 14:46:23;;;;;;;7.93;3.63;;;;;;;;;;4896951;29;20035;-67
2022/08/16 14:48:50;;;;;;;8.23;4.20;;;;;;;;;;4895029;29;20483;-67
2022/08/16 14:51:17;;;;;;;7.53;3.90;;;;;;;;;;4896319;29;20031;-67
2022/08/16 14:53:43;;;;;;;16.35;4.05;;;;;;;;;;4896047;29;20055;-67
2022/08/16 14:56:10;;;;;;;10.57;3.63;;;;;;;;;;4896353;29;20039;-67
2022/08/16 14:58:36;;;;;;;11.15;4.13;;;;;;;;;;4896416;29;20384;-66
2022/08/16 15:01:02;;;;;;;11.77;4.07;;;;;;;;;;4896331;29;20024;-67
2022/08/16 15:03:29;;;;;;;8.25;4.03;;;;;;;;;;4879399;29;20036;-67
2022/08/16 15:05:55;;;;;;;11.40;3.95;;;;;;;;;;4896814;29;20037;-66
2022/08/16 15:08:21;;;;;;;18.70;4.35;;;;;;;;;;4896804;29;20027;-67
2022/08/16 15:10:48;;;;;;;10.05;4.10;;;;;;;;;;4896685;29;20390;-67
2022/08/16 15:13:15;;;;;;;13.07;3.63;;;;;;;;;;4896502;29;20079;-67
2022/08/16 15:15:42;;;;;;;10.95;3.85;;;;;;;;;;4896620;29;20028;-67
2022/08/16 15:18:09;;;;;;;10.23;3.67;;;;;;;;;;4894966;29;20080;-66
2022/08/16 15:20:35;;;;;;;12.00;4.35;;;;;;;;;;4900053;29;20079;-66
2022/08/16 15:23:06;;;;;;;9.10;3.60;;;;;;;;;;4900086;29;20033;-66
2022/08/16 15:25:35;;;;;;;8.73;3.83;;;;;;;;;;4899964;29;20032;-67
2022/08/16 15:28:02;;;;;;;13.18;4.28;;;;;;;;;;4900298;29;20036;-66
2022/08/16 15:30:29;;;;;;;8.10;4.13;;;;;;;;;;4900651;29;20047;-66
2022/08/16 15:32:59;;;;;;;9.07;4.93;;;;;;;;;;4899436;29;20423;-67
2022/08/16 15:35:26;;;;;;;11.27;4.40;;;;;;;;;;4900076;29;20041;-67
2022/08/16 15:37:52;;;;;;;11.15;4.10;;;;;;;;;;4914219;29;20032;-67
2022/08/16 15:40:19;;;;;;;11.98;4.47;;;;;;;;;;4917547;29;20024;-67
2022/08/16 15:42:53;;;;;;;8.52;4.30;;;;;;;;;;4918675;29;20037;-67
2022/08/16 15:48:06;;;;;;;15.10;4.63;;;;;;;;;;4918897;29;20036;-67
2022/08/16 15:50:33;;;;;;;11.82;3.92;;;;;;;;;;4907303;29;20083;-67
2022/08/16 15:53:01;;;;;;;7.95;4.07;;;;;;;;;;4899913;29;20035;-67
2022/08/16 15:55:27;;;;;;;13.20;4.63;;;;;;;;;;4899649;29;20028;-67
2022/08/16 15:58:17;;;;;;;15.27;4.53;;;;;;;;;;4860223;29;20030;-63
2022/08/16 16:00:44;;;;;;;9.13;4.43;;;;;;;;;;4859716;29;20048;-64
2022/08/16 16:03:15;;;;;;;13.20;4.03;;;;;;;;;;4860309;29;20038;-66
2022/08/16 16:05:42;;;;;;;8.57;4.10;;;;;;;;;;4859972;29;20037;-66
2022/08/16 16:08:09;;;;;;;15.02;4.70;;;;;;;;;;4859747;29;20532;-66
2022/08/16 16:10:36;;;;;;;16.10;4.40;;;;;;;;;;4859620;29;20041;-66
2022/08/16 16:13:04;;;;;;;13.63;4.57;;;;;;;;;;4859826;29;20104;-66
2022/08/16 16:15:32;;;;;;;15.35;4.43;;;;;;;;;;4858477;29;20085;-66
2022/08/16 16:17:59;;;;;;;12.05;4.20;;;;;;;;;;4859645;29;20037;-66
